Terminal Aerodrome Forecast
Issued by NWS

Home | Current Version | Previous Version | Text Only | Print | Product List | Glossary On
Versions: 1 2 3 4 5 6 7 8 9 10 11 12 13 14 15 16 17 18 19 20 21 22 23 24 25 26 27 28 29 30 31 32 33 34 35 36 37 38 39 40 41
000
FTAK31 PANC 230838 AAA
TAFASN
TAF AMD
PASN 230838Z 2309/2406 18012KT P6SM -RA BKN009 BKN013 OVC018
     FM231400 24007KT P6SM VCSH SCT015 BKN040
     FM240200 18010KT P6SM SCT012 BKN020=

USA.gov is the U.S. government's official web portal to all federal, state and local government web resources and services.